sensor_id;sensor_type;location;lat;lon;timestamp;P1;durP1;ratioP1;P2;durP2;ratioP2
52468;SDS011;38381;53.688;10.776;2023-05-20T00:04:42;3.08;;;1.50;;
52468;SDS011;38381;53.688;10.776;2023-05-20T00:09:42;1.40;;;1.30;;
52468;SDS011;38381;53.688;10.776;2023-05-20T00:14:43;3.83;;;1.40;;
52468;SDS011;38381;53.688;10.776;2023-05-20T00:19:43;1.48;;;1.20;;
52468;SDS011;38381;53.688;10.776;2023-05-20T00:24:44;1.55;;;1.45;;
52468;SDS011;38381;53.688;10.776;2023-05-20T00:29:44;1.75;;;1.40;;
52468;SDS011;38381;53.688;10.776;2023-05-20T00:34:54;2.00;;;1.48;;
52468;SDS011;38381;53.688;10.776;2023-05-20T00:39:55;4.97;;;1.70;;
52468;SDS011;38381;53.688;10.776;2023-05-20T00:44:55;2.38;;;1.75;;
52468;SDS011;38381;53.688;10.776;2023-05-20T00:49:56;2.70;;;1.70;;
52468;SDS011;38381;53.688;10.776;2023-05-20T00:54:56;2.22;;;1.80;;
52468;SDS011;38381;53.688;10.776;2023-05-20T00:59:58;2.13;;;1.58;;
52468;SDS011;38381;53.688;10.776;2023-05-20T01:04:58;1.95;;;1.65;;
52468;SDS011;38381;53.688;10.776;2023-05-20T01:09:59;6.07;;;1.80;;
52468;SDS011;38381;53.688;10.776;2023-05-20T01:15:00;1.50;;;1.40;;
52468;SDS011;38381;53.688;10.776;2023-05-20T01:20:09;1.60;;;1.50;;
52468;SDS011;38381;53.688;10.776;2023-05-20T01:25:11;3.33;;;2.03;;
52468;SDS011;38381;53.688;10.776;2023-05-20T01:30:11;2.10;;;1.67;;
52468;SDS011;38381;53.688;10.776;2023-05-20T01:35:13;1.90;;;1.73;;
52468;SDS011;38381;53.688;10.776;2023-05-20T01:40:15;1.90;;;1.60;;
52468;SDS011;38381;53.688;10.776;2023-05-20T01:45:17;3.78;;;1.92;;
52468;SDS011;38381;53.688;10.776;2023-05-20T01:50:18;2.42;;;1.85;;
52468;SDS011;38381;53.688;10.776;2023-05-20T01:55:19;1.92;;;1.50;;
52468;SDS011;38381;53.688;10.776;2023-05-20T02:00:19;2.28;;;1.70;;
52468;SDS011;38381;53.688;10.776;2023-05-20T02:05:20;2.85;;;1.50;;
52468;SDS011;38381;53.688;10.776;2023-05-20T02:10:20;2.60;;;1.70;;
52468;SDS011;38381;53.688;10.776;2023-05-20T02:15:21;2.10;;;1.63;;
52468;SDS011;38381;53.688;10.776;2023-05-20T02:20:21;1.43;;;1.33;;
52468;SDS011;38381;53.688;10.776;2023-05-20T02:25:21;4.37;;;2.07;;
52468;SDS011;38381;53.688;10.776;2023-05-20T02:30:22;2.00;;;1.70;;
52468;SDS011;38381;53.688;10.776;2023-05-20T02:35:22;1.75;;;1.50;;
52468;SDS011;38381;53.688;10.776;2023-05-20T02:40:23;2.10;;;1.53;;
52468;SDS011;38381;53.688;10.776;2023-05-20T02:45:23;2.30;;;1.77;;
52468;SDS011;38381;53.688;10.776;2023-05-20T02:50:23;4.97;;;2.10;;
52468;SDS011;38381;53.688;10.776;2023-05-20T02:55:24;4.25;;;1.92;;
52468;SDS011;38381;53.688;10.776;2023-05-20T03:00:25;2.45;;;1.77;;
52468;SDS011;38381;53.688;10.776;2023-05-20T03:10:27;1.92;;;1.60;;
52468;SDS011;38381;53.688;10.776;2023-05-20T03:15:28;2.08;;;1.77;;
52468;SDS011;38381;53.688;10.776;2023-05-20T03:20:29;2.83;;;2.35;;
52468;SDS011;38381;53.688;10.776;2023-05-20T03:25:29;2.47;;;1.35;;
52468;SDS011;38381;53.688;10.776;2023-05-20T03:30:30;1.80;;;1.40;;
52468;SDS011;38381;53.688;10.776;2023-05-20T03:35:30;2.33;;;1.80;;
52468;SDS011;38381;53.688;10.776;2023-05-20T03:40:31;2.30;;;1.60;;
52468;SDS011;38381;53.688;10.776;2023-05-20T03:45:31;2.75;;;1.55;;
52468;SDS011;38381;53.688;10.776;2023-05-20T03:50:33;2.57;;;1.70;;
52468;SDS011;38381;53.688;10.776;2023-05-20T03:55:33;1.55;;;1.45;;
52468;SDS011;38381;53.688;10.776;2023-05-20T04:00:34;1.27;;;1.17;;
52468;SDS011;38381;53.688;10.776;2023-05-20T04:05:34;1.80;;;1.63;;
52468;SDS011;38381;53.688;10.776;2023-05-20T04:10:35;3.13;;;1.63;;
52468;SDS011;38381;53.688;10.776;2023-05-20T04:15:37;2.00;;;1.52;;
52468;SDS011;38381;53.688;10.776;2023-05-20T04:20:37;4.28;;;1.95;;
52468;SDS011;38381;53.688;10.776;2023-05-20T04:30:41;2.63;;;1.67;;
52468;SDS011;38381;53.688;10.776;2023-05-20T04:35:44;4.38;;;2.28;;
52468;SDS011;38381;53.688;10.776;2023-05-20T04:40:47;2.97;;;1.60;;
52468;SDS011;38381;53.688;10.776;2023-05-20T04:45:48;1.95;;;1.60;;
52468;SDS011;38381;53.688;10.776;2023-05-20T04:50:49;1.65;;;1.55;;
52468;SDS011;38381;53.688;10.776;2023-05-20T04:55:49;3.13;;;1.80;;
52468;SDS011;38381;53.688;10.776;2023-05-20T05:00:53;5.45;;;2.47;;
52468;SDS011;38381;53.688;10.776;2023-05-20T05:05:57;2.00;;;1.67;;
52468;SDS011;38381;53.688;10.776;2023-05-20T05:10:57;3.35;;;1.60;;
52468;SDS011;38381;53.688;10.776;2023-05-20T05:15:58;3.22;;;1.70;;
52468;SDS011;38381;53.688;10.776;2023-05-20T05:21:00;5.78;;;2.72;;
52468;SDS011;38381;53.688;10.776;2023-05-20T05:26:04;5.55;;;2.30;;
52468;SDS011;38381;53.688;10.776;2023-05-20T05:31:06;2.58;;;1.65;;
52468;SDS011;38381;53.688;10.776;2023-05-20T05:36:07;2.10;;;1.83;;
52468;SDS011;38381;53.688;10.776;2023-05-20T05:41:07;3.73;;;2.10;;
52468;SDS011;38381;53.688;10.776;2023-05-20T05:46:07;2.53;;;1.92;;
52468;SDS011;38381;53.688;10.776;2023-05-20T05:51:08;2.38;;;1.77;;
52468;SDS011;38381;53.688;10.776;2023-05-20T05:56:09;2.63;;;1.90;;
52468;SDS011;38381;53.688;10.776;2023-05-20T06:01:10;4.03;;;2.03;;
52468;SDS011;38381;53.688;10.776;2023-05-20T06:06:10;3.75;;;2.35;;
52468;SDS011;38381;53.688;10.776;2023-05-20T06:11:11;3.77;;;2.03;;
52468;SDS011;38381;53.688;10.776;2023-05-20T06:16:11;2.72;;;2.10;;
52468;SDS011;38381;53.688;10.776;2023-05-20T06:21:12;2.97;;;1.90;;
52468;SDS011;38381;53.688;10.776;2023-05-20T06:26:12;3.57;;;1.97;;
52468;SDS011;38381;53.688;10.776;2023-05-20T06:31:12;2.47;;;1.93;;
52468;SDS011;38381;53.688;10.776;2023-05-20T06:36:13;3.45;;;2.05;;
52468;SDS011;38381;53.688;10.776;2023-05-20T06:41:13;2.80;;;2.15;;
52468;SDS011;38381;53.688;10.776;2023-05-20T06:46:14;3.03;;;1.92;;
52468;SDS011;38381;53.688;10.776;2023-05-20T06:51:14;2.67;;;1.60;;
52468;SDS011;38381;53.688;10.776;2023-05-20T06:56:15;3.35;;;1.80;;
52468;SDS011;38381;53.688;10.776;2023-05-20T07:01:15;6.38;;;2.10;;
52468;SDS011;38381;53.688;10.776;2023-05-20T07:06:15;3.08;;;2.20;;
52468;SDS011;38381;53.688;10.776;2023-05-20T07:11:16;2.50;;;1.97;;
52468;SDS011;38381;53.688;10.776;2023-05-20T07:16:16;5.23;;;2.10;;
52468;SDS011;38381;53.688;10.776;2023-05-20T07:21:17;2.85;;;2.30;;
52468;SDS011;38381;53.688;10.776;2023-05-20T07:26:17;6.63;;;2.45;;
52468;SDS011;38381;53.688;10.776;2023-05-20T07:31:18;3.00;;;2.17;;
52468;SDS011;38381;53.688;10.776;2023-05-20T07:36:18;2.23;;;2.00;;
52468;SDS011;38381;53.688;10.776;2023-05-20T07:41:18;3.80;;;1.63;;
52468;SDS011;38381;53.688;10.776;2023-05-20T07:46:20;3.78;;;2.35;;
52468;SDS011;38381;53.688;10.776;2023-05-20T07:51:20;3.08;;;1.63;;
52468;SDS011;38381;53.688;10.776;2023-05-20T07:56:21;3.85;;;1.95;;
52468;SDS011;38381;53.688;10.776;2023-05-20T08:01:21;4.40;;;2.38;;
52468;SDS011;38381;53.688;10.776;2023-05-20T08:06:21;3.47;;;2.17;;
52468;SDS011;38381;53.688;10.776;2023-05-20T08:11:25;5.93;;;1.98;;
52468;SDS011;38381;53.688;10.776;2023-05-20T08:16:25;4.47;;;2.00;;
52468;SDS011;38381;53.688;10.776;2023-05-20T08:21:26;3.60;;;1.73;;
52468;SDS011;38381;53.688;10.776;2023-05-20T08:26:26;3.63;;;1.75;;
52468;SDS011;38381;53.688;10.776;2023-05-20T08:31:27;2.40;;;2.15;;
52468;SDS011;38381;53.688;10.776;2023-05-20T08:36:27;3.22;;;1.75;;
52468;SDS011;38381;53.688;10.776;2023-05-20T08:41:27;3.30;;;1.90;;
52468;SDS011;38381;53.688;10.776;2023-05-20T08:46:29;3.55;;;1.65;;
52468;SDS011;38381;53.688;10.776;2023-05-20T08:51:31;4.15;;;2.15;;
52468;SDS011;38381;53.688;10.776;2023-05-20T08:56:32;1.92;;;1.52;;
52468;SDS011;38381;53.688;10.776;2023-05-20T09:01:34;4.35;;;2.00;;
52468;SDS011;38381;53.688;10.776;2023-05-20T09:06:42;2.42;;;1.88;;
52468;SDS011;38381;53.688;10.776;2023-05-20T09:11:44;2.55;;;1.70;;
52468;SDS011;38381;53.688;10.776;2023-05-20T09:16:44;5.72;;;1.80;;
52468;SDS011;38381;53.688;10.776;2023-05-20T09:21:46;1.75;;;1.42;;
52468;SDS011;38381;53.688;10.776;2023-05-20T09:26:47;2.08;;;1.50;;
52468;SDS011;38381;53.688;10.776;2023-05-20T09:31:48;3.10;;;1.75;;
52468;SDS011;38381;53.688;10.776;2023-05-20T09:36:49;5.70;;;2.28;;
52468;SDS011;38381;53.688;10.776;2023-05-20T09:42:11;3.60;;;1.88;;
52468;SDS011;38381;53.688;10.776;2023-05-20T09:47:17;3.67;;;1.48;;
52468;SDS011;38381;53.688;10.776;2023-05-20T09:52:18;2.80;;;1.85;;
52468;SDS011;38381;53.688;10.776;2023-05-20T09:57:19;3.10;;;1.90;;
52468;SDS011;38381;53.688;10.776;2023-05-20T10:02:20;2.00;;;1.73;;
52468;SDS011;38381;53.688;10.776;2023-05-20T10:23:29;2.08;;;1.70;;
52468;SDS011;38381;53.688;10.776;2023-05-20T10:28:30;4.93;;;2.20;;
52468;SDS011;38381;53.688;10.776;2023-05-20T10:33:39;2.60;;;1.80;;
52468;SDS011;38381;53.688;10.776;2023-05-20T10:38:50;3.58;;;2.08;;
52468;SDS011;38381;53.688;10.776;2023-05-20T10:44:01;2.17;;;1.67;;
52468;SDS011;38381;53.688;10.776;2023-05-20T10:49:05;3.20;;;1.63;;
52468;SDS011;38381;53.688;10.776;2023-05-20T10:54:17;4.67;;;2.03;;
52468;SDS011;38381;53.688;10.776;2023-05-20T10:59:18;4.82;;;2.10;;
52468;SDS011;38381;53.688;10.776;2023-05-20T11:04:18;2.40;;;1.83;;
52468;SDS011;38381;53.688;10.776;2023-05-20T11:09:19;2.08;;;1.50;;
52468;SDS011;38381;53.688;10.776;2023-05-20T11:14:20;2.05;;;1.70;;
52468;SDS011;38381;53.688;10.776;2023-05-20T11:19:21;1.95;;;1.48;;
52468;SDS011;38381;53.688;10.776;2023-05-20T11:24:22;1.70;;;1.42;;
52468;SDS011;38381;53.688;10.776;2023-05-20T11:29:25;1.65;;;1.52;;
52468;SDS011;38381;53.688;10.776;2023-05-20T11:34:31;3.42;;;1.90;;
52468;SDS011;38381;53.688;10.776;2023-05-20T11:39:34;1.35;;;1.25;;
52468;SDS011;38381;53.688;10.776;2023-05-20T11:44:36;2.92;;;1.73;;
52468;SDS011;38381;53.688;10.776;2023-05-20T11:49:46;2.38;;;1.88;;
52468;SDS011;38381;53.688;10.776;2023-05-20T11:54:54;2.42;;;1.65;;
52468;SDS011;38381;53.688;10.776;2023-05-20T11:59:54;2.20;;;1.80;;
52468;SDS011;38381;53.688;10.776;2023-05-20T12:04:55;2.78;;;1.60;;
52468;SDS011;38381;53.688;10.776;2023-05-20T12:09:57;2.63;;;1.70;;
52468;SDS011;38381;53.688;10.776;2023-05-20T12:14:57;3.83;;;1.77;;
52468;SDS011;38381;53.688;10.776;2023-05-20T12:19:57;2.10;;;1.70;;
52468;SDS011;38381;53.688;10.776;2023-05-20T12:24:58;2.03;;;1.80;;
52468;SDS011;38381;53.688;10.776;2023-05-20T12:29:58;3.20;;;2.20;;
52468;SDS011;38381;53.688;10.776;2023-05-20T12:34:59;2.05;;;1.50;;
52468;SDS011;38381;53.688;10.776;2023-05-20T12:39:59;3.77;;;1.93;;
52468;SDS011;38381;53.688;10.776;2023-05-20T12:44:59;2.90;;;1.57;;
52468;SDS011;38381;53.688;10.776;2023-05-20T12:50:00;2.17;;;1.90;;
52468;SDS011;38381;53.688;10.776;2023-05-20T12:55:01;3.30;;;2.10;;
52468;SDS011;38381;53.688;10.776;2023-05-20T13:05:05;2.00;;;1.50;;
52468;SDS011;38381;53.688;10.776;2023-05-20T13:10:06;2.42;;;1.85;;
52468;SDS011;38381;53.688;10.776;2023-05-20T13:15:07;1.90;;;1.65;;
52468;SDS011;38381;53.688;10.776;2023-05-20T13:20:08;2.38;;;2.00;;
52468;SDS011;38381;53.688;10.776;2023-05-20T13:25:10;3.30;;;2.28;;
52468;SDS011;38381;53.688;10.776;2023-05-20T13:30:10;2.30;;;1.73;;
52468;SDS011;38381;53.688;10.776;2023-05-20T13:35:11;2.55;;;1.88;;
52468;SDS011;38381;53.688;10.776;2023-05-20T13:40:12;2.17;;;1.67;;
52468;SDS011;38381;53.688;10.776;2023-05-20T13:45:12;1.70;;;1.60;;
52468;SDS011;38381;53.688;10.776;2023-05-20T13:50:13;4.90;;;2.47;;
52468;SDS011;38381;53.688;10.776;2023-05-20T13:55:13;8.43;;;2.77;;
52468;SDS011;38381;53.688;10.776;2023-05-20T14:00:15;4.63;;;2.00;;
52468;SDS011;38381;53.688;10.776;2023-05-20T14:05:15;7.75;;;2.42;;
52468;SDS011;38381;53.688;10.776;2023-05-20T14:10:17;3.65;;;2.50;;
52468;SDS011;38381;53.688;10.776;2023-05-20T14:15:18;2.70;;;2.00;;
52468;SDS011;38381;53.688;10.776;2023-05-20T14:20:19;3.13;;;1.98;;
52468;SDS011;38381;53.688;10.776;2023-05-20T14:25:20;2.40;;;2.00;;
52468;SDS011;38381;53.688;10.776;2023-05-20T14:30:20;4.47;;;2.20;;
52468;SDS011;38381;53.688;10.776;2023-05-20T14:35:21;3.87;;;2.53;;
52468;SDS011;38381;53.688;10.776;2023-05-20T14:40:21;2.88;;;2.13;;
52468;SDS011;38381;53.688;10.776;2023-05-20T14:45:21;4.32;;;2.30;;
52468;SDS011;38381;53.688;10.776;2023-05-20T14:50:22;9.90;;;2.77;;
52468;SDS011;38381;53.688;10.776;2023-05-20T14:55:22;2.45;;;1.98;;
52468;SDS011;38381;53.688;10.776;2023-05-20T15:00:23;2.23;;;2.03;;
52468;SDS011;38381;53.688;10.776;2023-05-20T15:05:23;3.37;;;2.07;;
52468;SDS011;38381;53.688;10.776;2023-05-20T15:10:23;2.78;;;2.10;;
52468;SDS011;38381;53.688;10.776;2023-05-20T15:15:24;2.60;;;2.20;;
52468;SDS011;38381;53.688;10.776;2023-05-20T15:20:25;2.97;;;2.60;;
52468;SDS011;38381;53.688;10.776;2023-05-20T15:25:25;3.97;;;2.38;;
52468;SDS011;38381;53.688;10.776;2023-05-20T15:30:25;3.97;;;2.73;;
52468;SDS011;38381;53.688;10.776;2023-05-20T15:35:26;3.55;;;2.40;;
52468;SDS011;38381;53.688;10.776;2023-05-20T15:40:26;3.50;;;2.60;;
52468;SDS011;38381;53.688;10.776;2023-05-20T15:45:27;4.38;;;2.75;;
52468;SDS011;38381;53.688;10.776;2023-05-20T15:50:27;3.53;;;2.60;;
52468;SDS011;38381;53.688;10.776;2023-05-20T15:55:28;5.32;;;3.08;;
52468;SDS011;38381;53.688;10.776;2023-05-20T16:00:28;3.05;;;2.75;;
52468;SDS011;38381;53.688;10.776;2023-05-20T16:05:28;2.88;;;2.58;;
52468;SDS011;38381;53.688;10.776;2023-05-20T16:10:29;6.88;;;2.92;;
52468;SDS011;38381;53.688;10.776;2023-05-20T16:15:33;5.22;;;3.30;;
52468;SDS011;38381;53.688;10.776;2023-05-20T16:20:35;5.90;;;3.42;;
52468;SDS011;38381;53.688;10.776;2023-05-20T16:25:35;3.60;;;3.15;;
52468;SDS011;38381;53.688;10.776;2023-05-20T16:30:36;4.33;;;3.03;;
52468;SDS011;38381;53.688;10.776;2023-05-20T16:35:36;3.70;;;3.00;;
52468;SDS011;38381;53.688;10.776;2023-05-20T16:40:37;4.22;;;3.10;;
52468;SDS011;38381;53.688;10.776;2023-05-20T16:45:37;4.17;;;3.10;;
52468;SDS011;38381;53.688;10.776;2023-05-20T16:50:38;4.68;;;3.33;;
52468;SDS011;38381;53.688;10.776;2023-05-20T16:55:38;4.00;;;3.60;;
52468;SDS011;38381;53.688;10.776;2023-05-20T17:00:38;3.72;;;3.35;;
52468;SDS011;38381;53.688;10.776;2023-05-20T17:05:39;3.03;;;2.70;;
52468;SDS011;38381;53.688;10.776;2023-05-20T17:10:40;3.27;;;2.47;;
52468;SDS011;38381;53.688;10.776;2023-05-20T17:15:40;6.35;;;3.40;;
52468;SDS011;38381;53.688;10.776;2023-05-20T17:20:41;3.72;;;2.80;;
52468;SDS011;38381;53.688;10.776;2023-05-20T17:25:41;4.93;;;3.30;;
52468;SDS011;38381;53.688;10.776;2023-05-20T17:30:42;5.18;;;3.33;;
52468;SDS011;38381;53.688;10.776;2023-05-20T17:35:42;3.58;;;3.00;;
52468;SDS011;38381;53.688;10.776;2023-05-20T17:40:46;3.15;;;2.78;;
52468;SDS011;38381;53.688;10.776;2023-05-20T17:45:46;5.38;;;2.92;;
52468;SDS011;38381;53.688;10.776;2023-05-20T17:50:47;3.47;;;2.83;;
52468;SDS011;38381;53.688;10.776;2023-05-20T17:55:47;3.35;;;2.97;;
52468;SDS011;38381;53.688;10.776;2023-05-20T18:00:48;5.35;;;2.83;;
52468;SDS011;38381;53.688;10.776;2023-05-20T18:05:48;6.47;;;4.13;;
52468;SDS011;38381;53.688;10.776;2023-05-20T18:10:49;8.55;;;5.57;;
52468;SDS011;38381;53.688;10.776;2023-05-20T18:15:50;5.22;;;3.80;;
52468;SDS011;38381;53.688;10.776;2023-05-20T18:20:51;7.20;;;2.97;;
52468;SDS011;38381;53.688;10.776;2023-05-20T18:25:52;4.30;;;2.85;;
52468;SDS011;38381;53.688;10.776;2023-05-20T18:30:52;2.83;;;2.63;;
52468;SDS011;38381;53.688;10.776;2023-05-20T18:35:54;3.90;;;2.88;;
52468;SDS011;38381;53.688;10.776;2023-05-20T18:40:55;2.97;;;2.40;;
52468;SDS011;38381;53.688;10.776;2023-05-20T18:45:56;4.87;;;2.90;;
52468;SDS011;38381;53.688;10.776;2023-05-20T18:50:56;6.15;;;3.08;;
52468;SDS011;38381;53.688;10.776;2023-05-20T18:55:57;4.22;;;2.80;;
52468;SDS011;38381;53.688;10.776;2023-05-20T19:01:02;5.10;;;2.60;;
52468;SDS011;38381;53.688;10.776;2023-05-20T19:06:02;3.63;;;2.83;;
52468;SDS011;38381;53.688;10.776;2023-05-20T19:11:02;6.10;;;3.20;;
52468;SDS011;38381;53.688;10.776;2023-05-20T19:16:03;4.40;;;3.10;;
52468;SDS011;38381;53.688;10.776;2023-05-20T19:21:03;6.28;;;3.53;;
52468;SDS011;38381;53.688;10.776;2023-05-20T19:26:04;5.05;;;2.83;;
52468;SDS011;38381;53.688;10.776;2023-05-20T19:31:05;6.57;;;3.00;;
52468;SDS011;38381;53.688;10.776;2023-05-20T19:36:05;4.47;;;2.92;;
52468;SDS011;38381;53.688;10.776;2023-05-20T19:41:06;5.53;;;2.65;;
52468;SDS011;38381;53.688;10.776;2023-05-20T19:46:07;3.08;;;2.53;;
52468;SDS011;38381;53.688;10.776;2023-05-20T19:51:07;4.68;;;2.97;;
52468;SDS011;38381;53.688;10.776;2023-05-20T19:56:09;5.43;;;2.50;;
52468;SDS011;38381;53.688;10.776;2023-05-20T20:01:10;3.70;;;2.55;;
52468;SDS011;38381;53.688;10.776;2023-05-20T20:06:12;3.72;;;2.60;;
52468;SDS011;38381;53.688;10.776;2023-05-20T20:11:12;6.03;;;2.58;;
52468;SDS011;38381;53.688;10.776;2023-05-20T20:16:13;3.75;;;2.30;;
52468;SDS011;38381;53.688;10.776;2023-05-20T20:21:14;4.05;;;2.50;;
52468;SDS011;38381;53.688;10.776;2023-05-20T20:26:14;2.28;;;2.05;;
52468;SDS011;38381;53.688;10.776;2023-05-20T20:31:15;5.82;;;3.60;;
52468;SDS011;38381;53.688;10.776;2023-05-20T20:36:16;3.83;;;2.63;;
52468;SDS011;38381;53.688;10.776;2023-05-20T20:41:17;5.43;;;2.92;;
52468;SDS011;38381;53.688;10.776;2023-05-20T20:46:17;5.63;;;3.97;;
52468;SDS011;38381;53.688;10.776;2023-05-20T20:51:18;4.45;;;3.30;;
52468;SDS011;38381;53.688;10.776;2023-05-20T20:56:18;2.88;;;2.33;;
52468;SDS011;38381;53.688;10.776;2023-05-20T21:01:19;4.20;;;2.50;;
52468;SDS011;38381;53.688;10.776;2023-05-20T21:06:19;2.97;;;2.53;;
52468;SDS011;38381;53.688;10.776;2023-05-20T21:11:20;2.80;;;2.25;;
52468;SDS011;38381;53.688;10.776;2023-05-20T21:16:21;4.75;;;2.65;;
52468;SDS011;38381;53.688;10.776;2023-05-20T21:21:22;3.33;;;2.20;;
52468;SDS011;38381;53.688;10.776;2023-05-20T21:26:22;4.83;;;3.20;;
52468;SDS011;38381;53.688;10.776;2023-05-20T21:31:24;3.92;;;2.38;;
52468;SDS011;38381;53.688;10.776;2023-05-20T21:36:24;4.07;;;3.10;;
52468;SDS011;38381;53.688;10.776;2023-05-20T21:41:25;4.03;;;2.75;;
52468;SDS011;38381;53.688;10.776;2023-05-20T21:46:26;4.28;;;3.30;;
52468;SDS011;38381;53.688;10.776;2023-05-20T21:51:26;4.17;;;3.13;;
52468;SDS011;38381;53.688;10.776;2023-05-20T21:56:26;4.07;;;2.42;;
52468;SDS011;38381;53.688;10.776;2023-05-20T22:01:27;4.55;;;2.85;;
52468;SDS011;38381;53.688;10.776;2023-05-20T22:06:27;6.70;;;2.80;;
52468;SDS011;38381;53.688;10.776;2023-05-20T22:11:28;4.35;;;2.58;;
52468;SDS011;38381;53.688;10.776;2023-05-20T22:16:28;3.90;;;2.53;;
52468;SDS011;38381;53.688;10.776;2023-05-20T22:21:29;4.63;;;2.78;;
52468;SDS011;38381;53.688;10.776;2023-05-20T22:26:29;3.75;;;2.83;;
52468;SDS011;38381;53.688;10.776;2023-05-20T22:31:30;4.50;;;2.90;;
52468;SDS011;38381;53.688;10.776;2023-05-20T22:36:30;5.40;;;2.70;;
52468;SDS011;38381;53.688;10.776;2023-05-20T22:41:33;4.93;;;2.85;;
52468;SDS011;38381;53.688;10.776;2023-05-20T22:46:33;3.67;;;2.90;;
52468;SDS011;38381;53.688;10.776;2023-05-20T22:51:33;3.83;;;2.70;;
52468;SDS011;38381;53.688;10.776;2023-05-20T22:56:35;5.13;;;2.95;;
52468;SDS011;38381;53.688;10.776;2023-05-20T23:01:35;3.70;;;2.72;;
52468;SDS011;38381;53.688;10.776;2023-05-20T23:06:35;5.55;;;3.10;;
52468;SDS011;38381;53.688;10.776;2023-05-20T23:11:37;3.08;;;2.38;;
52468;SDS011;38381;53.688;10.776;2023-05-20T23:16:37;5.57;;;3.00;;
52468;SDS011;38381;53.688;10.776;2023-05-20T23:21:41;4.03;;;2.67;;
52468;SDS011;38381;53.688;10.776;2023-05-20T23:26:42;3.75;;;2.78;;
52468;SDS011;38381;53.688;10.776;2023-05-20T23:31:42;3.67;;;2.42;;
52468;SDS011;38381;53.688;10.776;2023-05-20T23:36:43;4.50;;;2.42;;
52468;SDS011;38381;53.688;10.776;2023-05-20T23:41:44;3.20;;;2.60;;
52468;SDS011;38381;53.688;10.776;2023-05-20T23:46:45;8.77;;;2.72;;
52468;SDS011;38381;53.688;10.776;2023-05-20T23:51:45;3.13;;;2.60;;
52468;SDS011;38381;53.688;10.776;2023-05-20T23:56:45;4.07;;;2.23;;
